Arriaga, Mexico

11:14 PM CDT on August 28, 2016 (GMT -0500)
Francisco Sarabia | | Change Station

Elev 1516 ft 16.56 °N, 93.03 °W | Updated 33 minutes ago

Overcast
Overcast
72 °F
Feels Like 72 °F
N
8
Wind Variable Wind from ESE

Today
High -- | Low -- °F
--% Chance of Precip.
Yesterday
High -- | Low -- °F
Precip. -- in
Pressure 30.00 in
Visibility 5.0 miles
Clouds Mostly Cloudy 1500 ft
Overcast 8000 ft
Dew Point 70 °F
Humidity 94%
Rainfall 5.25 in
Snow Depth Not available.
7:02 AM 7:30 PM
Waning Crescent, 11% visible
METAR MMTG 290341Z 11007KT 5SM BKN015CB OVC080 22/21 A3000 RMK 8/96/ HZY ISOLD ST WND E15008KT
Pressure 30.00 in
Visibility 5.0 miles
Clouds Mostly Cloudy 1500 ft
Overcast 8000 ft
Dew Point 70 °F
Humidity 94%
Rainfall 5.25 in
Snow Depth Not available.
7:02 AM 7:30 PM
Waning Crescent, 11% visible
METAR MMTG 290341Z 11007KT 5SM BKN015CB OVC080 22/21 A3000 RMK 8/96/ HZY ISOLD ST WND E15008KT

10-Day Weather Forecast

No radar image for this location.
×

Almanac

Astronomy

Aug. 28, 2016 Rise Set
Actual Time
Civil Twilight
Nautical Twilight
Astronomical Twilight
Moon
Length of Visible Light
Length of Day
Tomorrow will be .
, % of the Moon is Illuminated

Today's Extremes

Country Highs Country Lows

Community

WunderPhotos

Upload Photos

1,935,793 photos uploaded!

WunderBlog® & News

Nearby

Air Quality

  Air Quality AQ Index Pollutant
Not available.

Snow Depth

Station Depth Elevation

Earthquake Activity

City Distance Mag. Time & Date
Minimum magnitude displayed is 2.5.

Coastal Water Temperatures

Place Temperature

Stations

Nearby Weather Stations

Station Location Temp. Windchill Dew Point Humidity Wind Precip. Elev Updated Type